Portada
METAR-TAF:

METAR-TAF

Aeropuertos :

Laván, Irán

latitud: 26-48-37N, longitud: 53-21-22E, altitud: 23 m

Observación

El informe se hizo hace 11 minutos, a las 14:00 UTC
Viento 21 kt del oeste-noroeste
Temperatura 24°C
Humedad 54%
Presión 1011 hPa
Visibilidad 10 km o más
sin nubes por debajo de 1500 m y sin presencia de cumulonimbus.

METAR: OIBV 241400Z 29021KT CAVOK 24/14 Q1011

Hora: 18:41 (14:11 UTC)


TAF: falta

Observaciones y pronósticos meteorológicos de más de 4000 aeropuertos (mensajes METAR y TAF).

Los puntos amarillos y rojos representan las estaciones disponibles.

Ponga el ratón en el punto deseado para ver el nombre de la estación.

Haga clic para ver las observaciones y los pronósticos meteorológicos.

Para cambiar el mapa : haga clic en los botones verdes con una cruz de color negro para hacer un zoom, en el botón verde con un guión para alejar o en las flechas verdes para mapas adyacentes.


METAR-TAF: